sensor_id;sensor_type;location;lat;lon;timestamp;pressure;altitude;pressure_sealevel;temperature;humidity
84590;BME280;75075;48.816;8.740;2024-01-11T00:02:44;96209.31;;;20.94;28.04
84590;BME280;75075;48.816;8.740;2024-01-11T00:07:44;96207.28;;;20.96;27.65
84590;BME280;75075;48.816;8.740;2024-01-11T00:12:45;96207.47;;;20.94;27.98
84590;BME280;75075;48.816;8.740;2024-01-11T00:17:45;96211.81;;;20.95;27.93
84590;BME280;75075;48.816;8.740;2024-01-11T00:22:45;96213.53;;;20.96;27.53
84590;BME280;75075;48.816;8.740;2024-01-11T00:27:46;96199.53;;;20.93;28.00
84590;BME280;75075;48.816;8.740;2024-01-11T00:32:47;96209.31;;;20.94;27.98
84590;BME280;75075;48.816;8.740;2024-01-11T00:37:47;96210.16;;;20.94;27.78
84590;BME280;75075;48.816;8.740;2024-01-11T00:42:47;96206.63;;;20.94;27.56
84590;BME280;75075;48.816;8.740;2024-01-11T00:47:47;96213.00;;;20.93;27.80
84590;BME280;75075;48.816;8.740;2024-01-11T00:52:48;96209.47;;;20.92;27.60
84590;BME280;75075;48.816;8.740;2024-01-11T00:57:48;96217.56;;;20.92;27.63
84590;BME280;75075;48.816;8.740;2024-01-11T01:02:48;96213.88;;;20.93;27.56
84590;BME280;75075;48.816;8.740;2024-01-11T01:07:48;96209.31;;;20.94;27.91
84590;BME280;75075;48.816;8.740;2024-01-11T01:12:49;96212.00;;;20.94;27.73
84590;BME280;75075;48.816;8.740;2024-01-11T01:17:49;96220.94;;;20.94;27.84
84590;BME280;75075;48.816;8.740;2024-01-11T01:22:49;96215.56;;;20.94;27.77
84590;BME280;75075;48.816;8.740;2024-01-11T01:27:49;96224.28;;;20.96;27.67
84590;BME280;75075;48.816;8.740;2024-01-11T01:32:50;96218.25;;;20.94;27.63
84590;BME280;75075;48.816;8.740;2024-01-11T01:37:50;96228.19;;;20.94;27.47
84590;BME280;75075;48.816;8.740;2024-01-11T01:42:57;96228.19;;;20.94;27.92
84590;BME280;75075;48.816;8.740;2024-01-11T01:47:58;96229.84;;;20.95;27.50
84590;BME280;75075;48.816;8.740;2024-01-11T01:52:59;96233.38;;;20.95;27.26
84590;BME280;75075;48.816;8.740;2024-01-11T01:58:00;96247.88;;;20.94;27.43
84590;BME280;75075;48.816;8.740;2024-01-11T02:03:00;96255.13;;;20.94;27.74
84590;BME280;75075;48.816;8.740;2024-01-11T02:08:03;96253.28;;;20.94;27.38
84590;BME280;75075;48.816;8.740;2024-01-11T02:13:08;96247.88;;;20.94;27.40
84590;BME280;75075;48.816;8.740;2024-01-11T02:18:08;96253.94;;;20.96;27.66
84590;BME280;75075;48.816;8.740;2024-01-11T02:23:12;96243.16;;;20.96;27.20
84590;BME280;75075;48.816;8.740;2024-01-11T02:28:14;96252.94;;;20.97;27.28
84590;BME280;75075;48.816;8.740;2024-01-11T02:33:14;96248.69;;;20.95;27.27
84590;BME280;75075;48.816;8.740;2024-01-11T02:38:16;96247.88;;;20.94;27.52
84590;BME280;75075;48.816;8.740;2024-01-11T02:43:17;96244.16;;;20.95;27.54
84590;BME280;75075;48.816;8.740;2024-01-11T02:48:17;96242.31;;;20.96;27.50
84590;BME280;75075;48.816;8.740;2024-01-11T02:53:17;96244.00;;;20.97;27.36
84590;BME280;75075;48.816;8.740;2024-01-11T02:58:18;96251.91;;;20.98;27.56
84590;BME280;75075;48.816;8.740;2024-01-11T03:03:18;96239.28;;;20.99;27.69
84590;BME280;75075;48.816;8.740;2024-01-11T03:08:18;96241.81;;;21.00;27.27
84590;BME280;75075;48.816;8.740;2024-01-11T03:13:18;96230.34;;;20.98;27.12
84590;BME280;75075;48.816;8.740;2024-01-11T03:18:18;96222.94;;;21.00;27.47
84590;BME280;75075;48.816;8.740;2024-01-11T03:23:19;96214.03;;;21.00;27.21
84590;BME280;75075;48.816;8.740;2024-01-11T03:28:19;96227.97;;;21.03;27.62
84590;BME280;75075;48.816;8.740;2024-01-11T03:33:19;96220.25;;;21.00;27.37
84590;BME280;75075;48.816;8.740;2024-01-11T03:38:20;96222.94;;;21.00;27.38
84590;BME280;75075;48.816;8.740;2024-01-11T03:43:20;96227.97;;;21.03;27.23
84590;BME280;75075;48.816;8.740;2024-01-11T03:48:20;96229.84;;;21.03;27.67
84590;BME280;75075;48.816;8.740;2024-01-11T03:53:21;96227.16;;;21.03;27.32
84590;BME280;75075;48.816;8.740;2024-01-11T03:58:21;96219.06;;;21.03;27.36
84590;BME280;75075;48.816;8.740;2024-01-11T04:03:22;96222.56;;;21.03;27.17
84590;BME280;75075;48.816;8.740;2024-01-11T04:08:22;96213.50;;;21.04;27.34
84590;BME280;75075;48.816;8.740;2024-01-11T04:13:22;96213.50;;;21.04;27.32
84590;BME280;75075;48.816;8.740;2024-01-11T04:18:22;96209.78;;;21.06;27.51
84590;BME280;75075;48.816;8.740;2024-01-11T04:23:23;96222.56;;;21.03;27.28
84590;BME280;75075;48.816;8.740;2024-01-11T04:28:23;96214.50;;;21.03;27.46
84590;BME280;75075;48.816;8.740;2024-01-11T04:33:23;96214.34;;;21.05;27.23
84590;BME280;75075;48.816;8.740;2024-01-11T04:38:24;96214.34;;;21.05;27.14
84590;BME280;75075;48.816;8.740;2024-01-11T04:43:24;96207.09;;;21.06;27.01
84590;BME280;75075;48.816;8.740;2024-01-11T04:48:24;96213.16;;;21.08;27.27
84590;BME280;75075;48.816;8.740;2024-01-11T04:53:24;96209.59;;;21.07;27.30
84590;BME280;75075;48.816;8.740;2024-01-11T04:58:25;96212.28;;;21.07;27.25
84590;BME280;75075;48.816;8.740;2024-01-11T05:03:25;96211.44;;;21.07;27.21
84590;BME280;75075;48.816;8.740;2024-01-11T05:08:26;96219.53;;;21.07;27.44
84590;BME280;75075;48.816;8.740;2024-01-11T05:13:27;96220.25;;;21.09;26.94
84590;BME280;75075;48.816;8.740;2024-01-11T05:18:28;96234.56;;;21.09;27.32
84590;BME280;75075;48.816;8.740;2024-01-11T05:23:28;96235.41;;;21.10;27.24
84590;BME280;75075;48.816;8.740;2024-01-11T05:28:28;96230.00;;;21.10;27.24
84590;BME280;75075;48.816;8.740;2024-01-11T05:33:28;96238.09;;;21.10;27.40
84590;BME280;75075;48.816;8.740;2024-01-11T05:38:29;96248.88;;;21.10;27.40
84590;BME280;75075;48.816;8.740;2024-01-11T05:43:30;96248.88;;;21.10;27.21
84590;BME280;75075;48.816;8.740;2024-01-11T05:48:30;96244.31;;;21.10;27.24
84590;BME280;75075;48.816;8.740;2024-01-11T05:53:30;96248.72;;;21.11;27.12
84590;BME280;75075;48.816;8.740;2024-01-11T05:58:35;96255.78;;;21.12;27.23
84590;BME280;75075;48.816;8.740;2024-01-11T06:03:37;96263.03;;;21.12;26.96
84590;BME280;75075;48.816;8.740;2024-01-11T06:08:39;96265.88;;;21.10;26.98
84590;BME280;75075;48.816;8.740;2024-01-11T06:13:40;96255.78;;;21.12;26.96
84590;BME280;75075;48.816;8.740;2024-01-11T06:18:41;96261.00;;;21.14;27.08
84590;BME280;75075;48.816;8.740;2024-01-11T06:23:41;96262.84;;;21.13;27.32
84590;BME280;75075;48.816;8.740;2024-01-11T06:28:41;96261.00;;;21.14;27.28
84590;BME280;75075;48.816;8.740;2024-01-11T06:33:41;96251.22;;;21.13;26.99
84590;BME280;75075;48.816;8.740;2024-01-11T06:38:42;96257.31;;;21.15;27.12
84590;BME280;75075;48.816;8.740;2024-01-11T06:43:43;96266.91;;;21.17;27.22
84590;BME280;75075;48.816;8.740;2024-01-11T06:48:43;96277.50;;;21.19;27.20
84590;BME280;75075;48.816;8.740;2024-01-11T06:53:43;96282.72;;;21.20;27.29
84590;BME280;75075;48.816;8.740;2024-01-11T06:58:44;96291.66;;;21.21;27.77
84590;BME280;75075;48.816;8.740;2024-01-11T07:03:44;96303.25;;;21.21;27.32
84590;BME280;75075;48.816;8.740;2024-01-11T07:08:45;96306.66;;;21.23;27.54
84590;BME280;75075;48.816;8.740;2024-01-11T07:13:45;96321.78;;;21.24;27.78
84590;BME280;75075;48.816;8.740;2024-01-11T07:18:45;96312.03;;;21.23;27.67
84590;BME280;75075;48.816;8.740;2024-01-11T07:23:46;96311.84;;;21.25;27.39
84590;BME280;75075;48.816;8.740;2024-01-11T07:28:46;96305.44;;;21.26;27.74
84590;BME280;75075;48.816;8.740;2024-01-11T07:33:48;96308.81;;;21.28;27.73
84590;BME280;75075;48.816;8.740;2024-01-11T07:38:48;96316.75;;;21.29;27.52
84590;BME280;75075;48.816;8.740;2024-01-11T07:43:49;96323.13;;;21.28;27.57
84590;BME280;75075;48.816;8.740;2024-01-11T07:48:49;96325.50;;;21.31;27.71
84590;BME280;75075;48.816;8.740;2024-01-11T07:53:49;96323.44;;;21.41;27.95
84590;BME280;75075;48.816;8.740;2024-01-11T07:58:49;96330.94;;;21.62;28.24
84590;BME280;75075;48.816;8.740;2024-01-11T08:03:50;96349.75;;;20.99;30.19
84590;BME280;75075;48.816;8.740;2024-01-11T08:08:52;96361.38;;;21.32;29.08
84590;BME280;75075;48.816;8.740;2024-01-11T08:13:52;96376.84;;;21.54;29.39
84590;BME280;75075;48.816;8.740;2024-01-11T08:18:54;96362.81;;;21.67;29.08
84590;BME280;75075;48.816;8.740;2024-01-11T08:23:55;96393.31;;;21.75;29.41
84590;BME280;75075;48.816;8.740;2024-01-11T08:28:55;96398.84;;;21.82;29.45
84590;BME280;75075;48.816;8.740;2024-01-11T08:33:55;96380.25;;;21.87;29.25
84590;BME280;75075;48.816;8.740;2024-01-11T08:38:56;96391.38;;;22.00;29.52
84590;BME280;75075;48.816;8.740;2024-01-11T08:43:56;96390.16;;;22.10;29.48
84590;BME280;75075;48.816;8.740;2024-01-11T08:48:56;96391.63;;;22.21;29.32
84590;BME280;75075;48.816;8.740;2024-01-11T08:53:57;96385.97;;;22.00;29.96
84590;BME280;75075;48.816;8.740;2024-01-11T08:58:57;96391.97;;;22.18;29.54
84590;BME280;75075;48.816;8.740;2024-01-11T09:03:59;96388.97;;;21.50;30.04
84590;BME280;75075;48.816;8.740;2024-01-11T09:08:59;96385.00;;;21.85;29.62
84590;BME280;75075;48.816;8.740;2024-01-11T09:13:59;96377.63;;;22.18;29.35
84590;BME280;75075;48.816;8.740;2024-01-11T09:18:59;96402.34;;;22.37;29.36
84590;BME280;75075;48.816;8.740;2024-01-11T09:24:00;96397.44;;;22.41;29.56
84590;BME280;75075;48.816;8.740;2024-01-11T09:29:00;96386.38;;;22.50;29.53
84590;BME280;75075;48.816;8.740;2024-01-11T09:34:00;96398.31;;;22.56;29.29
84590;BME280;75075;48.816;8.740;2024-01-11T09:39:01;96405.56;;;22.63;29.72
84590;BME280;75075;48.816;8.740;2024-01-11T09:44:04;96403.69;;;22.72;29.47
84590;BME280;75075;48.816;8.740;2024-01-11T09:49:05;96415.34;;;22.73;29.92
84590;BME280;75075;48.816;8.740;2024-01-11T09:54:06;96422.75;;;22.70;30.11
84590;BME280;75075;48.816;8.740;2024-01-11T09:59:08;96417.84;;;22.74;29.66
84590;BME280;75075;48.816;8.740;2024-01-11T10:04:11;96411.44;;;22.75;29.90
84590;BME280;75075;48.816;8.740;2024-01-11T10:09:12;96407.53;;;22.78;30.04
84590;BME280;75075;48.816;8.740;2024-01-11T10:14:13;96411.00;;;22.86;30.04
84590;BME280;75075;48.816;8.740;2024-01-11T10:19:13;96402.19;;;22.92;30.12
84590;BME280;75075;48.816;8.740;2024-01-11T10:24:19;96398.44;;;22.93;30.42
84590;BME280;75075;48.816;8.740;2024-01-11T10:29:32;96383.75;;;22.96;30.02
84590;BME280;75075;48.816;8.740;2024-01-11T10:34:33;96383.19;;;23.00;30.31
84590;BME280;75075;48.816;8.740;2024-01-11T10:39:34;96387.38;;;23.03;29.82
84590;BME280;75075;48.816;8.740;2024-01-11T10:44:37;96378.91;;;23.06;30.10
84590;BME280;75075;48.816;8.740;2024-01-11T10:49:40;96397.09;;;23.12;30.11
84590;BME280;75075;48.816;8.740;2024-01-11T10:54:42;96393.19;;;23.14;30.42
84590;BME280;75075;48.816;8.740;2024-01-11T10:59:44;96401.59;;;23.19;30.70
84590;BME280;75075;48.816;8.740;2024-01-11T11:04:45;96415.81;;;23.21;30.30
84590;BME280;75075;48.816;8.740;2024-01-11T11:09:49;96398.53;;;23.22;30.12
84590;BME280;75075;48.816;8.740;2024-01-11T11:14:50;96392.09;;;23.23;30.11
84590;BME280;75075;48.816;8.740;2024-01-11T11:19:50;96395.28;;;23.27;29.90
84590;BME280;75075;48.816;8.740;2024-01-11T11:25:03;96393.22;;;23.29;29.67
84590;BME280;75075;48.816;8.740;2024-01-11T11:30:06;96392.03;;;23.32;29.79
84590;BME280;75075;48.816;8.740;2024-01-11T11:35:06;96386.25;;;23.35;29.53
84590;BME280;75075;48.816;8.740;2024-01-11T11:40:09;96387.34;;;22.57;30.15
84590;BME280;75075;48.816;8.740;2024-01-11T11:45:24;96390.13;;;22.49;30.13
84590;BME280;75075;48.816;8.740;2024-01-11T11:50:25;96383.69;;;22.20;30.58
84590;BME280;75075;48.816;8.740;2024-01-11T11:55:26;96374.97;;;22.09;30.54
84590;BME280;75075;48.816;8.740;2024-01-11T12:00:26;96370.44;;;22.02;30.63
84590;BME280;75075;48.816;8.740;2024-01-11T12:05:30;96351.44;;;21.95;30.62
84590;BME280;75075;48.816;8.740;2024-01-11T12:10:30;96354.84;;;21.89;31.19
84590;BME280;75075;48.816;8.740;2024-01-11T12:15:31;96337.94;;;21.87;31.07
84590;BME280;75075;48.816;8.740;2024-01-11T12:20:31;96329.50;;;21.82;31.14
84590;BME280;75075;48.816;8.740;2024-01-11T12:25:31;96336.03;;;22.04;30.78
84590;BME280;75075;48.816;8.740;2024-01-11T12:30:32;96331.53;;;22.19;30.52
84590;BME280;75075;48.816;8.740;2024-01-11T12:35:32;96338.50;;;22.13;29.59
84590;BME280;75075;48.816;8.740;2024-01-11T12:40:33;96332.53;;;22.49;29.59
84590;BME280;75075;48.816;8.740;2024-01-11T12:45:40;96333.13;;;22.36;30.85
84590;BME280;75075;48.816;8.740;2024-01-11T12:50:41;96334.81;;;22.37;31.13
84590;BME280;75075;48.816;8.740;2024-01-11T12:55:43;96335.94;;;22.43;31.02
84590;BME280;75075;48.816;8.740;2024-01-11T13:00:43;96326.47;;;22.47;31.33
84590;BME280;75075;48.816;8.740;2024-01-11T13:05:43;96313.28;;;22.75;31.45
84590;BME280;75075;48.816;8.740;2024-01-11T13:10:44;96316.19;;;22.88;31.24
84590;BME280;75075;48.816;8.740;2024-01-11T13:15:44;96313.63;;;22.94;31.16
84590;BME280;75075;48.816;8.740;2024-01-11T13:20:45;96315.38;;;23.02;31.49
84590;BME280;75075;48.816;8.740;2024-01-11T13:25:47;96318.94;;;23.02;31.18
84590;BME280;75075;48.816;8.740;2024-01-11T13:30:47;96328.19;;;23.08;31.02
84590;BME280;75075;48.816;8.740;2024-01-11T13:35:49;96341.34;;;23.11;31.00
84590;BME280;75075;48.816;8.740;2024-01-11T13:40:49;96341.44;;;23.17;31.69
84590;BME280;75075;48.816;8.740;2024-01-11T13:45:49;96359.00;;;23.21;31.53
84590;BME280;75075;48.816;8.740;2024-01-11T13:50:50;96357.59;;;23.25;31.61
84590;BME280;75075;48.816;8.740;2024-01-11T13:55:50;96365.34;;;23.28;31.71
84590;BME280;75075;48.816;8.740;2024-01-11T14:00:51;96360.03;;;23.35;31.50
84590;BME280;75075;48.816;8.740;2024-01-11T14:05:51;96354.09;;;23.40;31.24
84590;BME280;75075;48.816;8.740;2024-01-11T14:10:51;96361.84;;;23.43;30.96
84590;BME280;75075;48.816;8.740;2024-01-11T14:15:53;96360.25;;;23.48;31.41
84590;BME280;75075;48.816;8.740;2024-01-11T14:20:53;96381.38;;;23.53;31.33
84590;BME280;75075;48.816;8.740;2024-01-11T14:25:54;96381.38;;;23.53;31.11
84590;BME280;75075;48.816;8.740;2024-01-11T14:30:55;96384.53;;;23.56;31.00
84590;BME280;75075;48.816;8.740;2024-01-11T14:35:55;96397.53;;;23.61;31.22
84590;BME280;75075;48.816;8.740;2024-01-11T14:40:56;96390.91;;;23.63;30.68
84590;BME280;75075;48.816;8.740;2024-01-11T14:45:56;96391.53;;;23.65;31.13
84590;BME280;75075;48.816;8.740;2024-01-11T14:50:57;96388.47;;;23.68;31.31
84590;BME280;75075;48.816;8.740;2024-01-11T14:55:57;96387.91;;;23.73;30.54
84590;BME280;75075;48.816;8.740;2024-01-11T15:00:57;96389.41;;;23.75;30.97
84590;BME280;75075;48.816;8.740;2024-01-11T15:05:58;96394.81;;;23.75;30.76
84590;BME280;75075;48.816;8.740;2024-01-11T15:10:58;96397.69;;;23.74;31.43
84590;BME280;75075;48.816;8.740;2024-01-11T15:15:58;96411.06;;;23.75;31.02
84590;BME280;75075;48.816;8.740;2024-01-11T15:20:59;96418.50;;;23.73;30.77
84590;BME280;75075;48.816;8.740;2024-01-11T15:25:59;96414.63;;;23.76;30.58
84590;BME280;75075;48.816;8.740;2024-01-11T15:30:59;96426.00;;;23.71;30.69
84590;BME280;75075;48.816;8.740;2024-01-11T15:35:59;96419.72;;;23.71;30.85
84590;BME280;75075;48.816;8.740;2024-01-11T15:41:00;96421.22;;;23.73;30.66
84590;BME280;75075;48.816;8.740;2024-01-11T15:46:00;96426.75;;;23.80;31.05
84590;BME280;75075;48.816;8.740;2024-01-11T15:51:00;96441.50;;;23.77;31.84
84590;BME280;75075;48.816;8.740;2024-01-11T15:56:00;96448.75;;;23.77;31.52
84590;BME280;75075;48.816;8.740;2024-01-11T16:01:01;96449.81;;;23.76;31.25
84590;BME280;75075;48.816;8.740;2024-01-11T16:06:01;96451.00;;;23.73;30.92
84590;BME280;75075;48.816;8.740;2024-01-11T16:11:01;96444.94;;;23.71;30.81
84590;BME280;75075;48.816;8.740;2024-01-11T16:16:01;96445.13;;;23.70;31.04
84590;BME280;75075;48.816;8.740;2024-01-11T16:21:02;96440.16;;;23.73;30.92
84590;BME280;75075;48.816;8.740;2024-01-11T16:26:06;96461.28;;;23.18;30.84
84590;BME280;75075;48.816;8.740;2024-01-11T16:31:06;96467.22;;;23.13;30.75
84590;BME280;75075;48.816;8.740;2024-01-11T16:36:06;96465.00;;;23.17;30.85
84590;BME280;75075;48.816;8.740;2024-01-11T16:41:08;96469.22;;;23.19;31.09
84590;BME280;75075;48.816;8.740;2024-01-11T16:46:17;96456.91;;;23.17;30.97
84590;BME280;75075;48.816;8.740;2024-01-11T16:51:17;96451.69;;;23.15;31.08
84590;BME280;75075;48.816;8.740;2024-01-11T16:56:17;96453.34;;;23.16;30.96
84590;BME280;75075;48.816;8.740;2024-01-11T17:01:17;96460.81;;;23.14;30.98
84590;BME280;75075;48.816;8.740;2024-01-11T17:06:18;96474.69;;;23.11;31.29
84590;BME280;75075;48.816;8.740;2024-01-11T17:11:19;96481.38;;;23.01;31.32
84590;BME280;75075;48.816;8.740;2024-01-11T17:16:19;96481.09;;;22.88;31.60
84590;BME280;75075;48.816;8.740;2024-01-11T17:21:20;96482.75;;;22.66;31.59
84590;BME280;75075;48.816;8.740;2024-01-11T17:26:20;96487.47;;;22.56;31.80
84590;BME280;75075;48.816;8.740;2024-01-11T17:31:20;96481.25;;;22.55;32.16
84590;BME280;75075;48.816;8.740;2024-01-11T17:36:20;96478.88;;;22.91;30.42
84590;BME280;75075;48.816;8.740;2024-01-11T17:41:21;96474.47;;;22.98;30.11
84590;BME280;75075;48.816;8.740;2024-01-11T17:46:22;96487.78;;;23.00;30.11
84590;BME280;75075;48.816;8.740;2024-01-11T17:51:23;96472.56;;;22.99;29.85
84590;BME280;75075;48.816;8.740;2024-01-11T17:56:24;96480.03;;;22.97;29.73
84590;BME280;75075;48.816;8.740;2024-01-11T18:01:25;96468.38;;;22.96;29.67
84590;BME280;75075;48.816;8.740;2024-01-11T18:06:26;96464.00;;;22.95;29.79
84590;BME280;75075;48.816;8.740;2024-01-11T18:16:26;96484.94;;;22.93;29.96
84590;BME280;75075;48.816;8.740;2024-01-11T18:21:27;96487.19;;;22.90;29.56
84590;BME280;75075;48.816;8.740;2024-01-11T18:26:28;96498.16;;;22.88;29.84
84590;BME280;75075;48.816;8.740;2024-01-11T18:31:28;96501.06;;;22.87;29.32
84590;BME280;75075;48.816;8.740;2024-01-11T18:36:29;96508.47;;;22.85;29.28
84590;BME280;75075;48.816;8.740;2024-01-11T18:41:29;96500.56;;;22.83;29.50
84590;BME280;75075;48.816;8.740;2024-01-11T18:46:30;96498.22;;;22.80;29.27
84590;BME280;75075;48.816;8.740;2024-01-11T18:51:30;96490.25;;;22.79;29.38
84590;BME280;75075;48.816;8.740;2024-01-11T18:56:30;96515.78;;;22.76;29.47
84590;BME280;75075;48.816;8.740;2024-01-11T19:01:31;96520.53;;;22.74;29.29
84590;BME280;75075;48.816;8.740;2024-01-11T19:06:31;96513.44;;;22.73;29.15
84590;BME280;75075;48.816;8.740;2024-01-11T19:11:32;96509.06;;;22.72;28.97
84590;BME280;75075;48.816;8.740;2024-01-11T19:16:32;96503.16;;;22.68;29.53
84590;BME280;75075;48.816;8.740;2024-01-11T19:21:32;96490.66;;;22.67;29.19
84590;BME280;75075;48.816;8.740;2024-01-11T19:26:32;96489.16;;;22.65;29.14
84590;BME280;75075;48.816;8.740;2024-01-11T19:31:33;96480.22;;;22.64;29.27
84590;BME280;75075;48.816;8.740;2024-01-11T19:36:40;96492.38;;;22.60;29.33
84590;BME280;75075;48.816;8.740;2024-01-11T19:41:41;96496.09;;;22.59;29.42
84590;BME280;75075;48.816;8.740;2024-01-11T19:46:42;96499.13;;;22.56;29.33
84590;BME280;75075;48.816;8.740;2024-01-11T19:51:43;96517.41;;;22.54;29.17
84590;BME280;75075;48.816;8.740;2024-01-11T19:56:44;96515.88;;;22.52;28.64
84590;BME280;75075;48.816;8.740;2024-01-11T20:01:44;96513.69;;;22.47;29.05
84590;BME280;75075;48.816;8.740;2024-01-11T20:06:44;96505.78;;;22.46;28.94
84590;BME280;75075;48.816;8.740;2024-01-11T20:11:45;96488.91;;;22.44;28.82
84590;BME280;75075;48.816;8.740;2024-01-11T20:16:46;96497.19;;;22.42;28.67
84590;BME280;75075;48.816;8.740;2024-01-11T20:21:47;96509.19;;;22.40;28.56
84590;BME280;75075;48.816;8.740;2024-01-11T20:26:47;96510.03;;;22.40;28.65
84590;BME280;75075;48.816;8.740;2024-01-11T20:31:47;96521.19;;;22.37;28.44
84590;BME280;75075;48.816;8.740;2024-01-11T20:36:47;96515.28;;;22.34;28.30
84590;BME280;75075;48.816;8.740;2024-01-11T20:41:48;96509.88;;;22.34;28.16
84590;BME280;75075;48.816;8.740;2024-01-11T20:46:48;96506.53;;;22.32;28.31
84590;BME280;75075;48.816;8.740;2024-01-11T20:51:48;96505.84;;;22.30;28.46
84590;BME280;75075;48.816;8.740;2024-01-11T20:56:49;96518.50;;;22.29;28.21
84590;BME280;75075;48.816;8.740;2024-01-11T21:01:49;96526.78;;;22.28;28.58
84590;BME280;75075;48.816;8.740;2024-01-11T21:06:49;96526.13;;;22.26;28.76
84590;BME280;75075;48.816;8.740;2024-01-11T21:11:49;96527.97;;;22.25;28.65
84590;BME280;75075;48.816;8.740;2024-01-11T21:16:50;96519.22;;;22.23;29.04
84590;BME280;75075;48.816;8.740;2024-01-11T21:21:50;96518.34;;;22.23;28.70
84590;BME280;75075;48.816;8.740;2024-01-11T21:26:50;96527.47;;;22.22;28.83
84590;BME280;75075;48.816;8.740;2024-01-11T21:31:51;96534.06;;;22.19;28.84
84590;BME280;75075;48.816;8.740;2024-01-11T21:36:51;96527.16;;;22.17;28.69
84590;BME280;75075;48.816;8.740;2024-01-11T21:41:51;96523.44;;;22.18;29.14
84590;BME280;75075;48.816;8.740;2024-01-11T21:46:52;96519.22;;;22.15;29.14
84590;BME280;75075;48.816;8.740;2024-01-11T21:51:52;96520.06;;;22.15;29.02
84590;BME280;75075;48.816;8.740;2024-01-11T21:56:52;96526.50;;;22.14;29.01
84590;BME280;75075;48.816;8.740;2024-01-11T22:01:54;96521.25;;;22.13;29.04
84590;BME280;75075;48.816;8.740;2024-01-11T22:06:55;96524.28;;;22.10;28.70
84590;BME280;75075;48.816;8.740;2024-01-11T22:11:55;96515.38;;;22.09;28.73
84590;BME280;75075;48.816;8.740;2024-01-11T22:16:55;96502.88;;;22.08;28.67
84590;BME280;75075;48.816;8.740;2024-01-11T22:21:55;96494.94;;;22.07;28.80
84590;BME280;75075;48.816;8.740;2024-01-11T22:26:56;96494.28;;;22.05;29.15
84590;BME280;75075;48.816;8.740;2024-01-11T22:31:56;96501.72;;;22.03;28.97
84590;BME280;75075;48.816;8.740;2024-01-11T22:36:56;96503.56;;;22.02;29.15
84590;BME280;75075;48.816;8.740;2024-01-11T22:41:57;96505.59;;;22.00;29.01
84590;BME280;75075;48.816;8.740;2024-01-11T22:46:57;96500.53;;;21.97;28.96
84590;BME280;75075;48.816;8.740;2024-01-11T22:51:57;96493.44;;;21.96;29.22
84590;BME280;75075;48.816;8.740;2024-01-11T22:56:58;96493.44;;;21.96;28.99
84590;BME280;75075;48.816;8.740;2024-01-11T23:01:58;96487.41;;;21.94;28.67
84590;BME280;75075;48.816;8.740;2024-01-11T23:06:58;96484.03;;;21.92;29.20
84590;BME280;75075;48.816;8.740;2024-01-11T23:11:59;96486.88;;;21.91;28.96
84590;BME280;75075;48.816;8.740;2024-01-11T23:16:59;96491.44;;;21.90;28.71
84590;BME280;75075;48.816;8.740;2024-01-11T23:21:59;96504.94;;;21.90;28.88
84590;BME280;75075;48.816;8.740;2024-01-11T23:27:00;96504.41;;;21.87;29.07
84590;BME280;75075;48.816;8.740;2024-01-11T23:32:00;96509.78;;;21.87;29.18
84590;BME280;75075;48.816;8.740;2024-01-11T23:37:00;96512.69;;;21.85;29.24
84590;BME280;75075;48.816;8.740;2024-01-11T23:42:01;96511.81;;;21.85;28.73
84590;BME280;75075;48.816;8.740;2024-01-11T23:47:01;96509.97;;;21.85;29.06
84590;BME280;75075;48.816;8.740;2024-01-11T23:52:01;96513.03;;;21.82;29.17
84590;BME280;75075;48.816;8.740;2024-01-11T23:57:02;96507.63;;;21.82;28.95
